sensor_id;sensor_type;location;lat;lon;timestamp;P1;durP1;ratioP1;P2;durP2;ratioP2
78844;SDS011;68195;50.854;2.860;2023-08-08T00:01:00;12.38;;;2.92;;
78844;SDS011;68195;50.854;2.860;2023-08-08T00:03:26;5.90;;;2.60;;
78844;SDS011;68195;50.854;2.860;2023-08-08T00:05:52;11.43;;;3.08;;
78844;SDS011;68195;50.854;2.860;2023-08-08T00:08:19;8.65;;;2.53;;
78844;SDS011;68195;50.854;2.860;2023-08-08T00:10:47;6.75;;;3.00;;
78844;SDS011;68195;50.854;2.860;2023-08-08T00:15:38;8.97;;;3.37;;
78844;SDS011;68195;50.854;2.860;2023-08-08T00:18:03;9.23;;;2.80;;
78844;SDS011;68195;50.854;2.860;2023-08-08T00:20:31;8.38;;;2.80;;
78844;SDS011;68195;50.854;2.860;2023-08-08T00:23:02;10.77;;;2.97;;
78844;SDS011;68195;50.854;2.860;2023-08-08T00:25:29;12.65;;;3.22;;
78844;SDS011;68195;50.854;2.860;2023-08-08T00:27:55;9.32;;;3.45;;
78844;SDS011;68195;50.854;2.860;2023-08-08T00:30:20;9.20;;;2.80;;
78844;SDS011;68195;50.854;2.860;2023-08-08T00:32:46;8.07;;;2.95;;
78844;SDS011;68195;50.854;2.860;2023-08-08T00:35:14;9.57;;;3.03;;
78844;SDS011;68195;50.854;2.860;2023-08-08T00:37:39;7.68;;;2.90;;
78844;SDS011;68195;50.854;2.860;2023-08-08T00:40:05;11.70;;;2.70;;
78844;SDS011;68195;50.854;2.860;2023-08-08T00:42:31;8.63;;;4.10;;
78844;SDS011;68195;50.854;2.860;2023-08-08T00:44:56;9.52;;;3.35;;
78844;SDS011;68195;50.854;2.860;2023-08-08T00:47:28;10.50;;;3.08;;
78844;SDS011;68195;50.854;2.860;2023-08-08T00:49:56;10.25;;;2.83;;
78844;SDS011;68195;50.854;2.860;2023-08-08T00:52:22;8.75;;;2.97;;
78844;SDS011;68195;50.854;2.860;2023-08-08T00:54:47;7.70;;;3.00;;
78844;SDS011;68195;50.854;2.860;2023-08-08T00:57:13;14.90;;;3.03;;
78844;SDS011;68195;50.854;2.860;2023-08-08T00:59:38;11.35;;;3.75;;
78844;SDS011;68195;50.854;2.860;2023-08-08T01:02:04;8.05;;;2.90;;
78844;SDS011;68195;50.854;2.860;2023-08-08T01:04:29;8.57;;;3.65;;
78844;SDS011;68195;50.854;2.860;2023-08-08T01:12:01;7.22;;;3.20;;
78844;SDS011;68195;50.854;2.860;2023-08-08T01:14:28;6.85;;;2.67;;
78844;SDS011;68195;50.854;2.860;2023-08-08T01:16:57;7.68;;;2.60;;
78844;SDS011;68195;50.854;2.860;2023-08-08T01:19:25;7.30;;;2.58;;
78844;SDS011;68195;50.854;2.860;2023-08-08T01:21:53;10.20;;;2.58;;
78844;SDS011;68195;50.854;2.860;2023-08-08T01:24:23;7.22;;;3.10;;
78844;SDS011;68195;50.854;2.860;2023-08-08T01:26:54;7.13;;;2.70;;
78844;SDS011;68195;50.854;2.860;2023-08-08T01:29:20;7.35;;;2.30;;
78844;SDS011;68195;50.854;2.860;2023-08-08T01:31:48;7.20;;;3.08;;
78844;SDS011;68195;50.854;2.860;2023-08-08T01:34:13;7.65;;;2.78;;
78844;SDS011;68195;50.854;2.860;2023-08-08T01:36:42;8.77;;;3.50;;
78844;SDS011;68195;50.854;2.860;2023-08-08T01:39:30;8.10;;;2.95;;
78844;SDS011;68195;50.854;2.860;2023-08-08T01:41:58;9.57;;;2.78;;
78844;SDS011;68195;50.854;2.860;2023-08-08T01:44:29;6.95;;;2.63;;
78844;SDS011;68195;50.854;2.860;2023-08-08T01:46:57;5.63;;;2.55;;
78844;SDS011;68195;50.854;2.860;2023-08-08T01:49:25;5.85;;;2.67;;
78844;SDS011;68195;50.854;2.860;2023-08-08T01:51:52;6.95;;;2.85;;
78844;SDS011;68195;50.854;2.860;2023-08-08T01:54:20;12.35;;;3.25;;
78844;SDS011;68195;50.854;2.860;2023-08-08T01:56:45;8.57;;;2.95;;
78844;SDS011;68195;50.854;2.860;2023-08-08T01:59:15;6.60;;;2.60;;
78844;SDS011;68195;50.854;2.860;2023-08-08T02:01:41;12.82;;;3.10;;
78844;SDS011;68195;50.854;2.860;2023-08-08T02:06:31;6.07;;;2.63;;
78844;SDS011;68195;50.854;2.860;2023-08-08T02:09:00;9.35;;;2.92;;
78844;SDS011;68195;50.854;2.860;2023-08-08T02:11:25;5.95;;;2.75;;
78844;SDS011;68195;50.854;2.860;2023-08-08T02:13:53;12.13;;;2.97;;
78844;SDS011;68195;50.854;2.860;2023-08-08T02:16:21;10.63;;;3.72;;
78844;SDS011;68195;50.854;2.860;2023-08-08T02:18:46;10.93;;;3.22;;
78844;SDS011;68195;50.854;2.860;2023-08-08T02:23:40;6.40;;;2.60;;
78844;SDS011;68195;50.854;2.860;2023-08-08T02:26:07;8.30;;;3.03;;
78844;SDS011;68195;50.854;2.860;2023-08-08T02:28:33;7.43;;;2.90;;
78844;SDS011;68195;50.854;2.860;2023-08-08T02:33:24;7.70;;;3.22;;
78844;SDS011;68195;50.854;2.860;2023-08-08T02:35:52;7.72;;;3.22;;
78844;SDS011;68195;50.854;2.860;2023-08-08T02:38:17;9.95;;;3.00;;
78844;SDS011;68195;50.854;2.860;2023-08-08T02:40:50;6.55;;;2.80;;
78844;SDS011;68195;50.854;2.860;2023-08-08T02:45:41;7.55;;;2.72;;
78844;SDS011;68195;50.854;2.860;2023-08-08T02:48:09;6.15;;;2.22;;
78844;SDS011;68195;50.854;2.860;2023-08-08T02:50:34;6.90;;;3.83;;
78844;SDS011;68195;50.854;2.860;2023-08-08T02:53:00;13.60;;;3.55;;
78844;SDS011;68195;50.854;2.860;2023-08-08T02:55:27;7.97;;;2.88;;
78844;SDS011;68195;50.854;2.860;2023-08-08T02:57:55;6.03;;;2.58;;
78844;SDS011;68195;50.854;2.860;2023-08-08T03:00:21;8.02;;;2.83;;
78844;SDS011;68195;50.854;2.860;2023-08-08T03:05:14;7.97;;;3.10;;
78844;SDS011;68195;50.854;2.860;2023-08-08T03:07:39;6.55;;;3.13;;
78844;SDS011;68195;50.854;2.860;2023-08-08T03:10:04;14.15;;;3.13;;
78844;SDS011;68195;50.854;2.860;2023-08-08T03:12:32;7.25;;;2.75;;
78844;SDS011;68195;50.854;2.860;2023-08-08T03:15:00;7.45;;;2.97;;
78844;SDS011;68195;50.854;2.860;2023-08-08T03:17:28;6.95;;;2.65;;
78844;SDS011;68195;50.854;2.860;2023-08-08T03:19:53;6.45;;;2.85;;
78844;SDS011;68195;50.854;2.860;2023-08-08T03:22:18;6.30;;;3.00;;
78844;SDS011;68195;50.854;2.860;2023-08-08T03:24:44;5.88;;;2.42;;
78844;SDS011;68195;50.854;2.860;2023-08-08T03:27:09;10.18;;;3.40;;
78844;SDS011;68195;50.854;2.860;2023-08-08T03:29:35;14.30;;;3.05;;
78844;SDS011;68195;50.854;2.860;2023-08-08T03:32:00;6.03;;;2.65;;
78844;SDS011;68195;50.854;2.860;2023-08-08T03:34:26;9.80;;;2.50;;
78844;SDS011;68195;50.854;2.860;2023-08-08T03:36:53;12.77;;;3.53;;
78844;SDS011;68195;50.854;2.860;2023-08-08T03:39:19;7.28;;;2.90;;
78844;SDS011;68195;50.854;2.860;2023-08-08T03:41:44;8.30;;;2.53;;
78844;SDS011;68195;50.854;2.860;2023-08-08T03:44:09;10.35;;;3.10;;
78844;SDS011;68195;50.854;2.860;2023-08-08T03:46:35;8.75;;;3.15;;
78844;SDS011;68195;50.854;2.860;2023-08-08T03:49:00;11.23;;;2.85;;
78844;SDS011;68195;50.854;2.860;2023-08-08T03:51:26;6.22;;;3.08;;
78844;SDS011;68195;50.854;2.860;2023-08-08T03:53:53;7.47;;;3.38;;
78844;SDS011;68195;50.854;2.860;2023-08-08T03:56:19;6.55;;;2.70;;
78844;SDS011;68195;50.854;2.860;2023-08-08T03:58:46;5.70;;;2.67;;
78844;SDS011;68195;50.854;2.860;2023-08-08T04:03:39;10.30;;;2.90;;
78844;SDS011;68195;50.854;2.860;2023-08-08T04:06:07;7.95;;;2.67;;
78844;SDS011;68195;50.854;2.860;2023-08-08T04:08:35;4.93;;;2.30;;
78844;SDS011;68195;50.854;2.860;2023-08-08T04:13:25;10.27;;;3.33;;
78844;SDS011;68195;50.854;2.860;2023-08-08T04:15:53;4.25;;;2.83;;
78844;SDS011;68195;50.854;2.860;2023-08-08T04:18:19;7.85;;;3.38;;
78844;SDS011;68195;50.854;2.860;2023-08-08T04:20:45;10.02;;;3.78;;
78844;SDS011;68195;50.854;2.860;2023-08-08T04:23:12;8.35;;;2.70;;
78844;SDS011;68195;50.854;2.860;2023-08-08T04:25:38;8.82;;;2.67;;
78844;SDS011;68195;50.854;2.860;2023-08-08T04:28:05;7.38;;;2.65;;
78844;SDS011;68195;50.854;2.860;2023-08-08T04:32:58;7.82;;;2.72;;
78844;SDS011;68195;50.854;2.860;2023-08-08T04:35:26;8.80;;;2.47;;
78844;SDS011;68195;50.854;2.860;2023-08-08T04:37:51;6.18;;;2.63;;
78844;SDS011;68195;50.854;2.860;2023-08-08T04:40:17;8.45;;;3.00;;
78844;SDS011;68195;50.854;2.860;2023-08-08T04:45:08;5.00;;;2.28;;
78844;SDS011;68195;50.854;2.860;2023-08-08T04:49:59;13.43;;;3.33;;
78844;SDS011;68195;50.854;2.860;2023-08-08T04:54:49;5.97;;;2.77;;
78844;SDS011;68195;50.854;2.860;2023-08-08T04:57:17;9.98;;;2.35;;
78844;SDS011;68195;50.854;2.860;2023-08-08T04:59:45;3.50;;;2.28;;
78844;SDS011;68195;50.854;2.860;2023-08-08T05:02:11;6.90;;;2.30;;
78844;SDS011;68195;50.854;2.860;2023-08-08T05:04:41;8.07;;;2.75;;
78844;SDS011;68195;50.854;2.860;2023-08-08T05:07:09;7.03;;;2.53;;
78844;SDS011;68195;50.854;2.860;2023-08-08T05:09:34;13.88;;;2.60;;
78844;SDS011;68195;50.854;2.860;2023-08-08T05:12:00;7.40;;;2.45;;
78844;SDS011;68195;50.854;2.860;2023-08-08T05:14:26;12.00;;;3.10;;
78844;SDS011;68195;50.854;2.860;2023-08-08T05:19:17;6.70;;;2.13;;
78844;SDS011;68195;50.854;2.860;2023-08-08T05:21:44;9.13;;;2.42;;
78844;SDS011;68195;50.854;2.860;2023-08-08T05:26:37;6.95;;;2.35;;
78844;SDS011;68195;50.854;2.860;2023-08-08T05:29:03;9.13;;;2.28;;
78844;SDS011;68195;50.854;2.860;2023-08-08T05:31:28;12.93;;;3.08;;
78844;SDS011;68195;50.854;2.860;2023-08-08T05:33:54;9.13;;;3.17;;
78844;SDS011;68195;50.854;2.860;2023-08-08T05:36:21;7.78;;;2.97;;
78844;SDS011;68195;50.854;2.860;2023-08-08T05:38:49;7.90;;;2.40;;
78844;SDS011;68195;50.854;2.860;2023-08-08T05:41:15;9.43;;;3.25;;
78844;SDS011;68195;50.854;2.860;2023-08-08T05:43:40;4.07;;;2.35;;
78844;SDS011;68195;50.854;2.860;2023-08-08T05:48:33;7.88;;;3.20;;
78844;SDS011;68195;50.854;2.860;2023-08-08T05:50:58;7.35;;;2.42;;
78844;SDS011;68195;50.854;2.860;2023-08-08T05:53:24;4.88;;;2.22;;
78844;SDS011;68195;50.854;2.860;2023-08-08T05:55:50;10.40;;;2.90;;
78844;SDS011;68195;50.854;2.860;2023-08-08T05:58:15;9.07;;;2.53;;
78844;SDS011;68195;50.854;2.860;2023-08-08T06:00:43;10.43;;;2.85;;
78844;SDS011;68195;50.854;2.860;2023-08-08T06:03:09;8.07;;;2.53;;
78844;SDS011;68195;50.854;2.860;2023-08-08T06:05:34;4.32;;;2.33;;
78844;SDS011;68195;50.854;2.860;2023-08-08T06:10:29;5.32;;;2.28;;
78844;SDS011;68195;50.854;2.860;2023-08-08T06:12:54;7.20;;;2.88;;
78844;SDS011;68195;50.854;2.860;2023-08-08T06:15:22;8.48;;;2.25;;
78844;SDS011;68195;50.854;2.860;2023-08-08T06:17:48;10.07;;;2.28;;
78844;SDS011;68195;50.854;2.860;2023-08-08T06:20:13;6.00;;;2.63;;
78844;SDS011;68195;50.854;2.860;2023-08-08T06:25:07;9.25;;;2.88;;
78844;SDS011;68195;50.854;2.860;2023-08-08T06:29:57;7.47;;;2.80;;
78844;SDS011;68195;50.854;2.860;2023-08-08T06:32:25;6.38;;;2.60;;
78844;SDS011;68195;50.854;2.860;2023-08-08T06:34:55;6.97;;;2.53;;
78844;SDS011;68195;50.854;2.860;2023-08-08T06:37:23;7.60;;;2.42;;
78844;SDS011;68195;50.854;2.860;2023-08-08T06:39:49;6.75;;;2.20;;
78844;SDS011;68195;50.854;2.860;2023-08-08T06:42:16;8.40;;;2.50;;
78844;SDS011;68195;50.854;2.860;2023-08-08T06:44:44;7.30;;;2.50;;
78844;SDS011;68195;50.854;2.860;2023-08-08T06:47:10;8.38;;;2.45;;
78844;SDS011;68195;50.854;2.860;2023-08-08T06:49:36;8.30;;;2.63;;
78844;SDS011;68195;50.854;2.860;2023-08-08T06:52:07;7.57;;;2.67;;
78844;SDS011;68195;50.854;2.860;2023-08-08T06:54:36;5.55;;;2.75;;
78844;SDS011;68195;50.854;2.860;2023-08-08T06:57:01;7.75;;;3.58;;
78844;SDS011;68195;50.854;2.860;2023-08-08T06:59:31;7.35;;;2.40;;
78844;SDS011;68195;50.854;2.860;2023-08-08T07:01:57;4.70;;;2.08;;
78844;SDS011;68195;50.854;2.860;2023-08-08T07:04:25;4.75;;;2.72;;
78844;SDS011;68195;50.854;2.860;2023-08-08T07:06:50;7.47;;;3.15;;
78844;SDS011;68195;50.854;2.860;2023-08-08T07:09:20;6.25;;;2.10;;
78844;SDS011;68195;50.854;2.860;2023-08-08T07:11:46;4.80;;;2.42;;
78844;SDS011;68195;50.854;2.860;2023-08-08T07:14:14;4.72;;;2.83;;
78844;SDS011;68195;50.854;2.860;2023-08-08T07:16:39;4.90;;;2.47;;
78844;SDS011;68195;50.854;2.860;2023-08-08T07:19:07;6.40;;;2.47;;
78844;SDS011;68195;50.854;2.860;2023-08-08T07:21:35;5.57;;;3.13;;
78844;SDS011;68195;50.854;2.860;2023-08-08T07:24:01;3.95;;;2.22;;
78844;SDS011;68195;50.854;2.860;2023-08-08T07:26:28;4.70;;;2.30;;
78844;SDS011;68195;50.854;2.860;2023-08-08T07:28:54;5.38;;;2.47;;
78844;SDS011;68195;50.854;2.860;2023-08-08T07:31:20;5.25;;;2.50;;
78844;SDS011;68195;50.854;2.860;2023-08-08T07:33:48;5.60;;;2.20;;
78844;SDS011;68195;50.854;2.860;2023-08-08T07:36:13;6.25;;;2.83;;
78844;SDS011;68195;50.854;2.860;2023-08-08T07:38:41;4.93;;;2.53;;
78844;SDS011;68195;50.854;2.860;2023-08-08T07:41:11;4.85;;;2.15;;
78844;SDS011;68195;50.854;2.860;2023-08-08T07:43:36;6.85;;;2.70;;
78844;SDS011;68195;50.854;2.860;2023-08-08T07:46:04;5.60;;;2.17;;
78844;SDS011;68195;50.854;2.860;2023-08-08T07:48:29;5.50;;;2.38;;
78844;SDS011;68195;50.854;2.860;2023-08-08T07:50:55;4.07;;;2.17;;
78844;SDS011;68195;50.854;2.860;2023-08-08T07:53:23;5.70;;;2.42;;
78844;SDS011;68195;50.854;2.860;2023-08-08T07:55:51;6.45;;;2.85;;
78844;SDS011;68195;50.854;2.860;2023-08-08T07:58:16;4.50;;;2.35;;
78844;SDS011;68195;50.854;2.860;2023-08-08T08:00:41;4.35;;;2.25;;
78844;SDS011;68195;50.854;2.860;2023-08-08T08:03:12;7.72;;;2.92;;
78844;SDS011;68195;50.854;2.860;2023-08-08T08:05:37;4.93;;;2.35;;
78844;SDS011;68195;50.854;2.860;2023-08-08T08:08:03;4.65;;;2.38;;
78844;SDS011;68195;50.854;2.860;2023-08-08T08:10:31;6.05;;;2.15;;
78844;SDS011;68195;50.854;2.860;2023-08-08T08:12:58;3.78;;;2.22;;
78844;SDS011;68195;50.854;2.860;2023-08-08T08:15:26;9.10;;;2.78;;
78844;SDS011;68195;50.854;2.860;2023-08-08T08:17:54;4.30;;;2.33;;
78844;SDS011;68195;50.854;2.860;2023-08-08T08:20:22;4.30;;;1.95;;
78844;SDS011;68195;50.854;2.860;2023-08-08T08:22:47;4.70;;;1.85;;
78844;SDS011;68195;50.854;2.860;2023-08-08T08:25:13;2.80;;;1.90;;
78844;SDS011;68195;50.854;2.860;2023-08-08T08:27:39;3.78;;;1.92;;
78844;SDS011;68195;50.854;2.860;2023-08-08T08:30:10;4.68;;;1.77;;
78844;SDS011;68195;50.854;2.860;2023-08-08T08:32:39;3.78;;;1.70;;
78844;SDS011;68195;50.854;2.860;2023-08-08T08:35:05;3.90;;;1.63;;
78844;SDS011;68195;50.854;2.860;2023-08-08T08:37:34;4.63;;;1.83;;
78844;SDS011;68195;50.854;2.860;2023-08-08T08:40:02;5.15;;;1.95;;
78844;SDS011;68195;50.854;2.860;2023-08-08T08:42:34;2.03;;;1.45;;
78844;SDS011;68195;50.854;2.860;2023-08-08T08:45:01;2.80;;;1.60;;
78844;SDS011;68195;50.854;2.860;2023-08-08T08:47:28;5.95;;;1.70;;
78844;SDS011;68195;50.854;2.860;2023-08-08T08:49:58;6.07;;;1.77;;
78844;SDS011;68195;50.854;2.860;2023-08-08T08:52:23;1.98;;;1.50;;
78844;SDS011;68195;50.854;2.860;2023-08-08T08:54:52;3.72;;;1.60;;
78844;SDS011;68195;50.854;2.860;2023-08-08T08:57:20;3.55;;;1.83;;
78844;SDS011;68195;50.854;2.860;2023-08-08T08:59:48;2.92;;;1.50;;
78844;SDS011;68195;50.854;2.860;2023-08-08T09:02:19;3.00;;;1.65;;
78844;SDS011;68195;50.854;2.860;2023-08-08T09:04:45;3.15;;;1.63;;
78844;SDS011;68195;50.854;2.860;2023-08-08T09:07:12;2.47;;;1.60;;
78844;SDS011;68195;50.854;2.860;2023-08-08T09:09:42;4.60;;;1.85;;
78844;SDS011;68195;50.854;2.860;2023-08-08T09:12:10;2.17;;;1.60;;
78844;SDS011;68195;50.854;2.860;2023-08-08T09:14:39;4.15;;;1.45;;
78844;SDS011;68195;50.854;2.860;2023-08-08T09:17:10;3.45;;;1.60;;
78844;SDS011;68195;50.854;2.860;2023-08-08T09:19:36;7.05;;;1.92;;
78844;SDS011;68195;50.854;2.860;2023-08-08T09:22:01;2.95;;;1.70;;
78844;SDS011;68195;50.854;2.860;2023-08-08T09:24:30;3.55;;;1.80;;
78844;SDS011;68195;50.854;2.860;2023-08-08T09:26:58;1.80;;;1.30;;
78844;SDS011;68195;50.854;2.860;2023-08-08T09:29:23;3.55;;;1.55;;
78844;SDS011;68195;50.854;2.860;2023-08-08T09:31:48;1.85;;;1.17;;
78844;SDS011;68195;50.854;2.860;2023-08-08T09:34:15;3.47;;;1.17;;
78844;SDS011;68195;50.854;2.860;2023-08-08T09:36:40;2.05;;;0.98;;
78844;SDS011;68195;50.854;2.860;2023-08-08T09:39:06;1.75;;;1.23;;
78844;SDS011;68195;50.854;2.860;2023-08-08T09:41:32;1.45;;;1.05;;
78844;SDS011;68195;50.854;2.860;2023-08-08T09:43:58;1.67;;;1.10;;
78844;SDS011;68195;50.854;2.860;2023-08-08T09:46:25;2.05;;;1.40;;
78844;SDS011;68195;50.854;2.860;2023-08-08T09:48:51;2.58;;;1.02;;
78844;SDS011;68195;50.854;2.860;2023-08-08T09:51:19;2.13;;;1.30;;
78844;SDS011;68195;50.854;2.860;2023-08-08T09:53:50;3.90;;;1.30;;
78844;SDS011;68195;50.854;2.860;2023-08-08T09:56:18;3.92;;;1.23;;
78844;SDS011;68195;50.854;2.860;2023-08-08T09:58:48;2.40;;;1.50;;
78844;SDS011;68195;50.854;2.860;2023-08-08T10:01:14;2.47;;;1.48;;
78844;SDS011;68195;50.854;2.860;2023-08-08T10:03:39;4.35;;;1.30;;
78844;SDS011;68195;50.854;2.860;2023-08-08T10:06:08;2.60;;;1.35;;
78844;SDS011;68195;50.854;2.860;2023-08-08T10:08:36;2.20;;;1.15;;
78844;SDS011;68195;50.854;2.860;2023-08-08T10:11:02;3.13;;;1.40;;
78844;SDS011;68195;50.854;2.860;2023-08-08T10:13:31;2.00;;;1.00;;
78844;SDS011;68195;50.854;2.860;2023-08-08T10:15:57;4.15;;;1.50;;
78844;SDS011;68195;50.854;2.860;2023-08-08T10:18:29;1.52;;;1.15;;
78844;SDS011;68195;50.854;2.860;2023-08-08T10:20:55;2.78;;;1.20;;
78844;SDS011;68195;50.854;2.860;2023-08-08T10:23:22;2.78;;;1.30;;
78844;SDS011;68195;50.854;2.860;2023-08-08T10:25:48;1.85;;;1.23;;
78844;SDS011;68195;50.854;2.860;2023-08-08T10:28:17;2.90;;;1.35;;
78844;SDS011;68195;50.854;2.860;2023-08-08T10:33:18;2.78;;;1.20;;
78844;SDS011;68195;50.854;2.860;2023-08-08T10:35:57;2.67;;;1.38;;
78844;SDS011;68195;50.854;2.860;2023-08-08T10:38:23;1.58;;;1.00;;
78844;SDS011;68195;50.854;2.860;2023-08-08T10:40:58;3.00;;;1.10;;
78844;SDS011;68195;50.854;2.860;2023-08-08T10:43:28;1.55;;;0.88;;
78844;SDS011;68195;50.854;2.860;2023-08-08T10:46:00;3.25;;;1.30;;
78844;SDS011;68195;50.854;2.860;2023-08-08T10:48:31;2.58;;;1.20;;
78844;SDS011;68195;50.854;2.860;2023-08-08T10:50:59;2.00;;;1.30;;
78844;SDS011;68195;50.854;2.860;2023-08-08T10:53:26;2.90;;;1.10;;
78844;SDS011;68195;50.854;2.860;2023-08-08T10:56:35;3.03;;;1.38;;
78844;SDS011;68195;50.854;2.860;2023-08-08T10:58:47;3.88;;;1.40;;
78844;SDS011;68195;50.854;2.860;2023-08-08T11:01:15;1.63;;;1.20;;
78844;SDS011;68195;50.854;2.860;2023-08-08T11:03:42;2.40;;;1.08;;
78844;SDS011;68195;50.854;2.860;2023-08-08T11:06:08;1.90;;;1.20;;
78844;SDS011;68195;50.854;2.860;2023-08-08T11:08:35;3.08;;;1.15;;
78844;SDS011;68195;50.854;2.860;2023-08-08T11:11:03;2.63;;;2.05;;
78844;SDS011;68195;50.854;2.860;2023-08-08T11:13:29;1.23;;;1.00;;
78844;SDS011;68195;50.854;2.860;2023-08-08T11:15:55;1.73;;;1.00;;
78844;SDS011;68195;50.854;2.860;2023-08-08T11:18:23;2.20;;;1.00;;
78844;SDS011;68195;50.854;2.860;2023-08-08T11:20:50;2.50;;;1.08;;
78844;SDS011;68195;50.854;2.860;2023-08-08T11:23:16;3.28;;;1.27;;
78844;SDS011;68195;50.854;2.860;2023-08-08T11:25:45;2.13;;;1.15;;
78844;SDS011;68195;50.854;2.860;2023-08-08T11:28:12;2.47;;;1.00;;
78844;SDS011;68195;50.854;2.860;2023-08-08T11:30:41;2.97;;;1.20;;
78844;SDS011;68195;50.854;2.860;2023-08-08T11:33:10;3.08;;;1.25;;
78844;SDS011;68195;50.854;2.860;2023-08-08T11:35:42;2.78;;;1.20;;
78844;SDS011;68195;50.854;2.860;2023-08-08T11:38:12;3.42;;;1.30;;
78844;SDS011;68195;50.854;2.860;2023-08-08T11:40:38;3.00;;;1.20;;
78844;SDS011;68195;50.854;2.860;2023-08-08T11:43:07;1.05;;;0.95;;
78844;SDS011;68195;50.854;2.860;2023-08-08T11:45:32;2.40;;;0.73;;
78844;SDS011;68195;50.854;2.860;2023-08-08T11:47:59;2.03;;;1.20;;
78844;SDS011;68195;50.854;2.860;2023-08-08T11:50:26;1.65;;;0.70;;
78844;SDS011;68195;50.854;2.860;2023-08-08T11:52:54;2.22;;;0.98;;
78844;SDS011;68195;50.854;2.860;2023-08-08T11:55:21;3.42;;;1.17;;
78844;SDS011;68195;50.854;2.860;2023-08-08T11:57:56;2.83;;;1.23;;
78844;SDS011;68195;50.854;2.860;2023-08-08T12:00:25;2.88;;;0.90;;
78844;SDS011;68195;50.854;2.860;2023-08-08T12:02:54;0.77;;;0.73;;
78844;SDS011;68195;50.854;2.860;2023-08-08T12:05:20;1.95;;;1.00;;
78844;SDS011;68195;50.854;2.860;2023-08-08T12:07:49;2.25;;;1.10;;
78844;SDS011;68195;50.854;2.860;2023-08-08T12:10:19;1.20;;;0.93;;
78844;SDS011;68195;50.854;2.860;2023-08-08T12:12:55;2.05;;;1.00;;
78844;SDS011;68195;50.854;2.860;2023-08-08T12:15:28;2.03;;;1.17;;
78844;SDS011;68195;50.854;2.860;2023-08-08T12:17:57;2.85;;;1.15;;
78844;SDS011;68195;50.854;2.860;2023-08-08T12:20:26;3.75;;;0.93;;
78844;SDS011;68195;50.854;2.860;2023-08-08T12:22:56;4.82;;;1.38;;
78844;SDS011;68195;50.854;2.860;2023-08-08T12:25:22;1.73;;;1.23;;
78844;SDS011;68195;50.854;2.860;2023-08-08T12:27:47;1.75;;;1.02;;
78844;SDS011;68195;50.854;2.860;2023-08-08T12:30:15;1.73;;;1.30;;
78844;SDS011;68195;50.854;2.860;2023-08-08T12:32:40;2.78;;;1.13;;
78844;SDS011;68195;50.854;2.860;2023-08-08T12:35:11;2.08;;;1.30;;
78844;SDS011;68195;50.854;2.860;2023-08-08T12:37:36;3.42;;;1.63;;
78844;SDS011;68195;50.854;2.860;2023-08-08T12:40:05;3.38;;;1.40;;
78844;SDS011;68195;50.854;2.860;2023-08-08T12:42:31;3.95;;;1.73;;
78844;SDS011;68195;50.854;2.860;2023-08-08T12:44:56;3.58;;;1.85;;
78844;SDS011;68195;50.854;2.860;2023-08-08T12:47:22;2.83;;;1.70;;
78844;SDS011;68195;50.854;2.860;2023-08-08T12:49:49;3.00;;;1.65;;
78844;SDS011;68195;50.854;2.860;2023-08-08T12:52:18;4.78;;;1.92;;
78844;SDS011;68195;50.854;2.860;2023-08-08T12:54:43;2.25;;;1.50;;
78844;SDS011;68195;50.854;2.860;2023-08-08T12:57:09;3.42;;;1.70;;
78844;SDS011;68195;50.854;2.860;2023-08-08T12:59:34;3.15;;;1.50;;
78844;SDS011;68195;50.854;2.860;2023-08-08T13:01:59;4.10;;;1.50;;
78844;SDS011;68195;50.854;2.860;2023-08-08T13:04:30;2.22;;;1.20;;
78844;SDS011;68195;50.854;2.860;2023-08-08T13:06:55;3.17;;;1.25;;
78844;SDS011;68195;50.854;2.860;2023-08-08T13:09:21;2.88;;;1.15;;
78844;SDS011;68195;50.854;2.860;2023-08-08T13:11:49;3.03;;;1.40;;
78844;SDS011;68195;50.854;2.860;2023-08-08T13:14:14;3.55;;;1.38;;
78844;SDS011;68195;50.854;2.860;2023-08-08T13:16:40;1.98;;;1.35;;
78844;SDS011;68195;50.854;2.860;2023-08-08T13:19:08;2.08;;;1.23;;
78844;SDS011;68195;50.854;2.860;2023-08-08T13:21:36;1.77;;;1.00;;
78844;SDS011;68195;50.854;2.860;2023-08-08T13:24:05;2.05;;;1.40;;
78844;SDS011;68195;50.854;2.860;2023-08-08T13:26:30;2.80;;;1.40;;
78844;SDS011;68195;50.854;2.860;2023-08-08T13:28:56;2.55;;;1.20;;
78844;SDS011;68195;50.854;2.860;2023-08-08T13:31:21;3.30;;;1.67;;
78844;SDS011;68195;50.854;2.860;2023-08-08T13:33:49;2.35;;;1.23;;
78844;SDS011;68195;50.854;2.860;2023-08-08T13:36:14;1.48;;;1.08;;
78844;SDS011;68195;50.854;2.860;2023-08-08T13:38:40;1.67;;;1.10;;
78844;SDS011;68195;50.854;2.860;2023-08-08T13:41:05;2.03;;;1.15;;
78844;SDS011;68195;50.854;2.860;2023-08-08T13:43:31;1.77;;;1.23;;
78844;SDS011;68195;50.854;2.860;2023-08-08T13:45:56;3.88;;;1.50;;
78844;SDS011;68195;50.854;2.860;2023-08-08T13:48:22;5.90;;;1.60;;
78844;SDS011;68195;50.854;2.860;2023-08-08T13:50:47;3.20;;;1.33;;
78844;SDS011;68195;50.854;2.860;2023-08-08T13:53:13;3.83;;;1.40;;
78844;SDS011;68195;50.854;2.860;2023-08-08T13:55:38;2.25;;;1.50;;
78844;SDS011;68195;50.854;2.860;2023-08-08T13:58:05;3.47;;;1.40;;
78844;SDS011;68195;50.854;2.860;2023-08-08T14:00:33;2.60;;;1.40;;
78844;SDS011;68195;50.854;2.860;2023-08-08T14:03:01;2.47;;;1.70;;
78844;SDS011;68195;50.854;2.860;2023-08-08T14:05:29;3.95;;;1.45;;
78844;SDS011;68195;50.854;2.860;2023-08-08T14:07:57;3.50;;;1.63;;
78844;SDS011;68195;50.854;2.860;2023-08-08T14:10:22;4.57;;;1.80;;
78844;SDS011;68195;50.854;2.860;2023-08-08T14:12:50;4.22;;;1.60;;
78844;SDS011;68195;50.854;2.860;2023-08-08T14:15:15;3.78;;;1.80;;
78844;SDS011;68195;50.854;2.860;2023-08-08T14:17:41;4.05;;;1.75;;
78844;SDS011;68195;50.854;2.860;2023-08-08T14:20:06;3.00;;;1.52;;
78844;SDS011;68195;50.854;2.860;2023-08-08T14:22:33;4.47;;;1.80;;
78844;SDS011;68195;50.854;2.860;2023-08-08T14:24:59;4.20;;;1.50;;
78844;SDS011;68195;50.854;2.860;2023-08-08T14:27:25;1.83;;;1.40;;
78844;SDS011;68195;50.854;2.860;2023-08-08T14:29:50;4.55;;;1.40;;
78844;SDS011;68195;50.854;2.860;2023-08-08T14:32:15;2.65;;;1.50;;
78844;SDS011;68195;50.854;2.860;2023-08-08T14:34:42;4.47;;;1.58;;
78844;SDS011;68195;50.854;2.860;2023-08-08T14:37:07;2.25;;;1.58;;
78844;SDS011;68195;50.854;2.860;2023-08-08T14:39:33;5.95;;;1.40;;
78844;SDS011;68195;50.854;2.860;2023-08-08T14:41:58;4.20;;;1.70;;
78844;SDS011;68195;50.854;2.860;2023-08-08T14:44:24;3.33;;;1.65;;
78844;SDS011;68195;50.854;2.860;2023-08-08T14:46:49;1.90;;;1.15;;
78844;SDS011;68195;50.854;2.860;2023-08-08T14:49:17;3.00;;;1.48;;
78844;SDS011;68195;50.854;2.860;2023-08-08T14:51:43;2.33;;;1.13;;
78844;SDS011;68195;50.854;2.860;2023-08-08T14:54:08;2.60;;;1.25;;
78844;SDS011;68195;50.854;2.860;2023-08-08T14:56:34;4.60;;;1.50;;
78844;SDS011;68195;50.854;2.860;2023-08-08T14:59:02;3.03;;;1.30;;
78844;SDS011;68195;50.854;2.860;2023-08-08T15:01:27;2.55;;;1.30;;
78844;SDS011;68195;50.854;2.860;2023-08-08T15:03:53;2.42;;;1.50;;
78844;SDS011;68195;50.854;2.860;2023-08-08T15:06:19;3.03;;;1.10;;
78844;SDS011;68195;50.854;2.860;2023-08-08T15:08:44;4.88;;;1.55;;
78844;SDS011;68195;50.854;2.860;2023-08-08T15:11:09;2.60;;;1.20;;
78844;SDS011;68195;50.854;2.860;2023-08-08T15:13:36;3.45;;;1.15;;
78844;SDS011;68195;50.854;2.860;2023-08-08T15:16:02;2.63;;;1.30;;
78844;SDS011;68195;50.854;2.860;2023-08-08T15:18:32;2.80;;;1.30;;
78844;SDS011;68195;50.854;2.860;2023-08-08T15:20:58;2.45;;;1.67;;
78844;SDS011;68195;50.854;2.860;2023-08-08T15:23:23;3.40;;;1.48;;
78844;SDS011;68195;50.854;2.860;2023-08-08T15:25:48;4.25;;;1.23;;
78844;SDS011;68195;50.854;2.860;2023-08-08T15:28:16;2.22;;;1.05;;
78844;SDS011;68195;50.854;2.860;2023-08-08T15:30:42;6.80;;;1.55;;
78844;SDS011;68195;50.854;2.860;2023-08-08T15:33:07;3.78;;;1.20;;
78844;SDS011;68195;50.854;2.860;2023-08-08T15:35:33;1.60;;;1.20;;